Wetterdaten: Woche 27.03.17 - 02.04.17 (KW13)
Datum Zeit Temp. A. Feuchte A. Luftdruck Regen Wind Richtung Sonnenschein ET UV Solar Taupunkt Windchill Windben Empfang
27.03.2017 00:00 1,7 C 73 % 1025,4 hPa 0,0 l/m 2,4 km/h (1 Bft) O-NO 0,00 h 0,000 mm 0,0 UV-I 0 W/m -2,6 C 1,7 C 3,6 km/h (1 Bft) 95,82 %
27.03.2017 01:00 2,2 C 70 % 1025,5 hPa 0,0 l/m 4,4 km/h (1 Bft) O-NO 0,00 h 0,000 mm 0,0 UV-I 0 W/m -2,7 C 2,1 C 6,2 km/h (2 Bft) 95,94 %
27.03.2017 02:00 1,3 C 75 % 1025,7 hPa 0,0 l/m 2,3 km/h (1 Bft) NO 0,00 h 0,025 mm 0,0 UV-I 0 W/m -2,7 C 1,3 C 4,1 km/h (1 Bft) 97,93 %
27.03.2017 03:00 0,9 C 76 % 1025,7 hPa 0,0 l/m 2,6 km/h (1 Bft) O-NO 0,00 h 0,000 mm 0,0 UV-I 0 W/m -2,8 C 0,9 C 4,4 km/h (1 Bft) 97,13 %
27.03.2017 04:00 0,2 C 80 % 1025,8 hPa 0,0 l/m 3,3 km/h (1 Bft) O-NO 0,00 h 0,000 mm 0,0 UV-I 0 W/m -2,8 C 0,0 C 5,5 km/h (1 Bft) 94,21 %
27.03.2017 05:00 1,1 C 77 % 1025,8 hPa 0,0 l/m 9,8 km/h (2 Bft) O 0,00 h 0,000 mm 0,0 UV-I 0 W/m -2,6 C -2,0 C 14,6 km/h (3 Bft) 97,21 %
27.03.2017 06:00 0,4 C 79 % 1025,9 hPa 0,0 l/m 3,9 km/h (1 Bft) O-NO 0,00 h 0,026 mm 0,0 UV-I 7 W/m -2,8 C 0,2 C 6,1 km/h (2 Bft) 96,55 %
27.03.2017 07:00 -0,1 C 83 % 1026,1 hPa 0,0 l/m 2,3 km/h (1 Bft) O-NO 0,93 h 0,000 mm 0,0 UV-I 81 W/m -2,7 C -0,1 C 4,1 km/h (1 Bft) 98,28 %
27.03.2017 08:00 1,6 C 79 % 1026,1 hPa 0,0 l/m 5,2 km/h (1 Bft) O-NO 1,00 h 0,025 mm 0,4 UV-I 243 W/m -1,7 C 1,5 C 7,9 km/h (2 Bft) 94,35 %
27.03.2017 09:00 4,0 C 73 % 1026,2 hPa 0,0 l/m 11,4 km/h (2 Bft) O-NO 1,00 h 0,102 mm 0,9 UV-I 417 W/m -0,5 C 0,4 C 16,8 km/h (3 Bft) 98,01 %
27.03.2017 10:00 6,6 C 63 % 1026,1 hPa 0,0 l/m 19,6 km/h (3 Bft) O-NO 1,00 h 0,178 mm 1,6 UV-I 566 W/m 0,1 C -0,9 C 26,1 km/h (4 Bft) 97,17 %
27.03.2017 11:00 8,9 C 54 % 1025,9 hPa 0,0 l/m 18,0 km/h (3 Bft) NO 1,00 h 0,304 mm 2,4 UV-I 674 W/m 0,2 C 2,6 C 25,1 km/h (4 Bft) 97,61 %
27.03.2017 12:00 10,9 C 44 % 1025,5 hPa 0,0 l/m 15,8 km/h (3 Bft) O-NO 1,00 h 0,381 mm 3,0 UV-I 734 W/m -1,0 C 6,0 C 22,8 km/h (4 Bft) 97,38 %
27.03.2017 13:00 12,7 C 35 % 1025,0 hPa 0,0 l/m 17,7 km/h (3 Bft) O-NO 1,00 h 0,432 mm 3,1 UV-I 741 W/m -2,3 C 7,5 C 24,6 km/h (4 Bft) 97,26 %
27.03.2017 14:00 14,0 C 30 % 1024,1 hPa 0,0 l/m 18,5 km/h (3 Bft) NO 1,00 h 0,483 mm 2,7 UV-I 695 W/m -3,2 C 9,0 C 25,7 km/h (4 Bft) 96,51 %
27.03.2017 15:00 14,8 C 25 % 1023,3 hPa 0,0 l/m 17,6 km/h (3 Bft) NO 1,00 h 0,508 mm 2,0 UV-I 596 W/m -4,9 C 10,2 C 24,6 km/h (4 Bft) 95,04 %
27.03.2017 16:00 15,0 C 25 % 1023,0 hPa 0,0 l/m 16,9 km/h (3 Bft) O-NO 1,00 h 0,457 mm 1,2 UV-I 451 W/m -4,7 C 10,6 C 23,5 km/h (4 Bft) 96,24 %
27.03.2017 17:00 14,7 C 27 % 1022,7 hPa 0,0 l/m 16,2 km/h (3 Bft) O-NO 1,00 h 0,381 mm 0,6 UV-I 277 W/m -4,4 C 10,4 C 22,1 km/h (4 Bft) 96,61 %
27.03.2017 18:00 13,6 C 31 % 1022,5 hPa 0,0 l/m 15,0 km/h (3 Bft) O-NO 1,00 h 0,279 mm 0,0 UV-I 112 W/m -3,5 C 9,5 C 20,7 km/h (4 Bft) 97,40 %
27.03.2017 19:00 11,7 C 37 % 1022,6 hPa 0,0 l/m 14,0 km/h (3 Bft) O-NO 0,30 h 0,178 mm 0,0 UV-I 16 W/m -2,4 C 7,7 C 19,5 km/h (3 Bft) 95,55 %
27.03.2017 20:00 10,3 C 41 % 1022,9 hPa 0,0 l/m 14,9 km/h (3 Bft) O-NO 0,00 h 0,102 mm 0,0 UV-I 0 W/m -2,3 C 5,6 C 20,5 km/h (4 Bft) 95,81 %
27.03.2017 21:00 9,7 C 42 % 1023,2 hPa 0,0 l/m 11,8 km/h (2 Bft) O-NO 0,00 h 0,101 mm 0,0 UV-I 0 W/m -2,5 C 6,4 C 17,3 km/h (3 Bft) 93,74 %
27.03.2017 22:00 8,8 C 44 % 1023,1 hPa 0,0 l/m 11,4 km/h (2 Bft) NO 0,00 h 0,077 mm 0,0 UV-I 0 W/m -2,9 C 5,6 C 17,1 km/h (3 Bft) 97,40 %
27.03.2017 23:00 8,0 C 46 % 1022,9 hPa 0,0 l/m 13,0 km/h (3 Bft) O-NO 0,00 h 0,076 mm 0,0 UV-I 0 W/m -2,9 C 3,8 C 18,2 km/h (3 Bft) 96,86 %
28.03.2017 00:00 7,2 C 48 % 1022,9 hPa 0,0 l/m 7,4 km/h (2 Bft) O-NO 0,00 h 0,000 mm 0,0 UV-I 0 W/m -3,0 C 6,1 C 12,1 km/h (2 Bft) 97,73 %
28.03.2017 01:00 5,8 C 55 % 1022,8 hPa 0,0 l/m 3,9 km/h (1 Bft) O-NO 0,00 h 0,051 mm 0,0 UV-I 0 W/m -2,7 C 5,7 C 6,5 km/h (2 Bft) 94,22 %
28.03.2017 02:00 3,6 C 66 % 1022,6 hPa 0,0 l/m 2,0 km/h (1 Bft) S 0,00 h 0,025 mm 0,0 UV-I 0 W/m -2,3 C 3,6 C 3,4 km/h (1 Bft) 97,83 %
28.03.2017 03:00 2,5 C 74 % 1022,3 hPa 0,0 l/m 3,0 km/h (1 Bft) S-SW 0,00 h 0,000 mm 0,0 UV-I 0 W/m -1,6 C 2,5 C 4,6 km/h (1 Bft) 97,24 %
28.03.2017 04:00 1,8 C 82 % 1022,1 hPa 0,0 l/m 2,8 km/h (1 Bft) S-SW 0,00 h 0,000 mm 0,0 UV-I 0 W/m -0,9 C 1,8 C 4,4 km/h (1 Bft) 98,06 %
28.03.2017 05:00 1,7 C 83 % 1022,3 hPa 0,0 l/m 2,3 km/h (1 Bft) S-SW 0,00 h 0,000 mm 0,0 UV-I 0 W/m -0,9 C 1,7 C 4,1 km/h (1 Bft) 95,52 %
28.03.2017 06:00 1,8 C 84 % 1022,5 hPa 0,0 l/m 1,4 km/h (1 Bft) S-SW 0,00 h 0,000 mm 0,0 UV-I 8 W/m -0,6 C 1,8 C 2,7 km/h (1 Bft) 95,42 %
28.03.2017 07:00 1,7 C 85 % 1023,0 hPa 0,0 l/m 1,6 km/h (1 Bft) S-SW 0,97 h 0,000 mm 0,0 UV-I 81 W/m -0,5 C 1,7 C 3,0 km/h (1 Bft) 95,96 %
28.03.2017 08:00 4,3 C 79 % 1023,3 hPa 0,0 l/m 3,0 km/h (1 Bft) S-SW 1,00 h 0,026 mm 0,5 UV-I 245 W/m 1,0 C 4,3 C 4,9 km/h (1 Bft) 96,21 %
28.03.2017 09:00 7,1 C 67 % 1023,6 hPa 0,0 l/m 3,0 km/h (1 Bft) SW 1,00 h 0,101 mm 0,9 UV-I 418 W/m 1,4 C 7,1 C 5,4 km/h (1 Bft) 98,23 %
28.03.2017 10:00 9,8 C 59 % 1023,8 hPa 0,0 l/m 3,8 km/h (1 Bft) W-SW 1,00 h 0,178 mm 1,7 UV-I 564 W/m 2,1 C 9,8 C 6,6 km/h (2 Bft) 96,22 %
28.03.2017 11:00 12,2 C 53 % 1023,9 hPa 0,0 l/m 2,6 km/h (1 Bft) W-SW 1,00 h 0,279 mm 2,5 UV-I 669 W/m 2,9 C 12,2 C 5,8 km/h (2 Bft) 98,94 %
28.03.2017 12:00 13,9 C 49 % 1023,6 hPa 0,0 l/m 2,8 km/h (1 Bft) O 1,00 h 0,331 mm 3,1 UV-I 725 W/m 3,3 C 13,9 C 5,7 km/h (1 Bft) 98,51 %
28.03.2017 13:00 15,6 C 45 % 1023,0 hPa 0,0 l/m 2,4 km/h (1 Bft) NW 1,00 h 0,381 mm 3,2 UV-I 733 W/m 3,7 C 15,6 C 5,6 km/h (1 Bft) 98,70 %
28.03.2017 14:00 17,0 C 43 % 1022,2 hPa 0,0 l/m 2,4 km/h (1 Bft) NW 1,00 h 0,406 mm 2,8 UV-I 682 W/m 4,2 C 17,0 C 5,8 km/h (2 Bft) 98,95 %
28.03.2017 15:00 18,1 C 43 % 1021,6 hPa 0,0 l/m 3,7 km/h (1 Bft) W-NW 1,00 h 0,381 mm 2,0 UV-I 580 W/m 5,2 C 18,0 C 8,1 km/h (2 Bft) 98,27 %
28.03.2017 16:00 18,5 C 40 % 1021,2 hPa 0,0 l/m 3,7 km/h (1 Bft) W-NW 1,00 h 0,356 mm 1,2 UV-I 436 W/m 4,6 C 18,5 C 8,8 km/h (2 Bft) 99,12 %
28.03.2017 17:00 17,9 C 40 % 1021,1 hPa 0,0 l/m 3,1 km/h (1 Bft) W-NW 1,00 h 0,279 mm 0,6 UV-I 266 W/m 4,2 C 17,9 C 6,7 km/h (2 Bft) 96,54 %
28.03.2017 18:00 16,8 C 42 % 1021,2 hPa 0,0 l/m 2,2 km/h (1 Bft) W-NW 1,00 h 0,178 mm 0,0 UV-I 103 W/m 3,9 C 16,8 C 5,2 km/h (1 Bft) 96,68 %
28.03.2017 19:00 13,9 C 53 % 1021,5 hPa 0,0 l/m 0,4 km/h (0 Bft) W-NW 0,33 h 0,076 mm 0,0 UV-I 16 W/m 4,4 C 13,9 C 1,5 km/h (1 Bft) 99,35 %
28.03.2017 20:00 10,7 C 66 % 1022,1 hPa 0,0 l/m 2,3 km/h (1 Bft) W-SW 0,00 h 0,025 mm 0,0 UV-I 0 W/m 4,6 C 10,7 C 3,7 km/h (1 Bft) 97,70 %
28.03.2017 21:00 10,1 C 66 % 1022,6 hPa 0,0 l/m 3,6 km/h (1 Bft) S-SW 0,00 h 0,026 mm 0,0 UV-I 0 W/m 4,1 C 10,1 C 5,5 km/h (1 Bft) 99,50 %
28.03.2017 22:00 10,1 C 70 % 1023,0 hPa 0,0 l/m 5,4 km/h (1 Bft) S 0,00 h 0,025 mm 0,0 UV-I 0 W/m 4,8 C 10,1 C 7,7 km/h (2 Bft) 97,34 %
28.03.2017 23:00 9,7 C 73 % 1023,4 hPa 0,0 l/m 6,7 km/h (2 Bft) S-SW 0,00 h 0,026 mm 0,0 UV-I 0 W/m 5,0 C 9,3 C 10,1 km/h (2 Bft) 96,82 %
29.03.2017 00:00 8,6 C 76 % 1023,7 hPa 0,0 l/m 6,3 km/h (2 Bft) S-SW 0,00 h 0,000 mm 0,0 UV-I 0 W/m 4,7 C 8,4 C 8,7 km/h (2 Bft) 96,97 %
29.03.2017 01:00 7,9 C 79 % 1023,8 hPa 0,0 l/m 7,2 km/h (2 Bft) S-SW 0,00 h 0,025 mm 0,0 UV-I 0 W/m 4,4 C 7,3 C 9,9 km/h (2 Bft) 99,28 %
29.03.2017 02:00 7,8 C 78 % 1023,9 hPa 0,0 l/m 4,8 km/h (1 Bft) SW 0,00 h 0,026 mm 0,0 UV-I 0 W/m 4,2 C 7,8 C 6,8 km/h (2 Bft) 98,08 %
29.03.2017 03:00 6,6 C 82 % 1023,9 hPa 0,0 l/m 1,9 km/h (1 Bft) S 0,00 h 0,025 mm 0,0 UV-I 0 W/m 3,7 C 6,6 C 3,5 km/h (1 Bft) 98,38 %
29.03.2017 04:00 6,5 C 81 % 1024,0 hPa 0,0 l/m 2,3 km/h (1 Bft) S 0,00 h 0,000 mm 0,0 UV-I 0 W/m 3,4 C 6,5 C 4,7 km/h (1 Bft) 96,60 %
29.03.2017 05:00 6,2 C 81 % 1024,1 hPa 0,0 l/m 3,2 km/h (1 Bft) S 0,00 h 0,000 mm 0,0 UV-I 0 W/m 3,2 C 6,2 C 5,0 km/h (1 Bft) 95,89 %
29.03.2017 06:00 6,3 C 81 % 1024,3 hPa 0,0 l/m 2,6 km/h (1 Bft) S 0,03 h 0,000 mm 0,0 UV-I 7 W/m 3,3 C 6,3 C 4,7 km/h (1 Bft) 97,97 %
29.03.2017 07:00 7,2 C 80 % 1024,7 hPa 0,0 l/m 2,9 km/h (1 Bft) SW 0,03 h 0,000 mm 0,0 UV-I 34 W/m 3,9 C 7,2 C 4,7 km/h (1 Bft) 96,30 %
29.03.2017 08:00 8,7 C 78 % 1025,0 hPa 0,0 l/m 3,9 km/h (1 Bft) SW 0,63 h 0,026 mm 0,4 UV-I 173 W/m 4,9 C 8,7 C 6,6 km/h (2 Bft) 98,02 %
29.03.2017 09:00 11,7 C 70 % 1025,1 hPa 0,0 l/m 7,7 km/h (2 Bft) W-SW 0,97 h 0,101 mm 0,8 UV-I 367 W/m 6,3 C 10,6 C 12,4 km/h (3 Bft) 95,03 %
29.03.2017 10:00 14,9 C 60 % 1025,3 hPa 0,0 l/m 12,0 km/h (2 Bft) W-SW 1,00 h 0,203 mm 1,5 UV-I 535 W/m 7,1 C 12,2 C 18,3 km/h (3 Bft) 97,54 %
29.03.2017 11:00 16,4 C 57 % 1025,3 hPa 0,0 l/m 10,0 km/h (2 Bft) W 1,00 h 0,331 mm 2,2 UV-I 641 W/m 7,8 C 14,7 C 16,7 km/h (3 Bft) 96,52 %
29.03.2017 12:00 17,2 C 54 % 1025,1 hPa 0,0 l/m 13,4 km/h (3 Bft) W-SW 1,00 h 0,406 mm 2,7 UV-I 701 W/m 7,8 C 14,5 C 21,2 km/h (4 Bft) 97,13 %
29.03.2017 13:00 18,1 C 52 % 1024,6 hPa 0,0 l/m 10,4 km/h (2 Bft) W-SW 1,00 h 0,457 mm 2,9 UV-I 717 W/m 8,1 C 16,5 C 18,1 km/h (3 Bft) 97,60 %
29.03.2017 14:00 18,7 C 49 % 1024,0 hPa 0,0 l/m 13,4 km/h (3 Bft) W-SW 0,97 h 0,457 mm 2,6 UV-I 683 W/m 7,6 C 16,2 C 23,4 km/h (4 Bft) 94,28 %
29.03.2017 15:00 18,9 C 47 % 1023,4 hPa 0,0 l/m 13,1 km/h (3 Bft) W-SW 0,90 h 0,483 mm 1,8 UV-I 546 W/m 7,4 C 16,6 C 21,9 km/h (4 Bft) 97,75 %
29.03.2017 16:00 18,9 C 45 % 1022,8 hPa 0,0 l/m 13,5 km/h (3 Bft) W 0,90 h 0,381 mm 1,1 UV-I 423 W/m 6,8 C 16,5 C 23,0 km/h (4 Bft) 96,46 %
29.03.2017 17:00 18,3 C 46 % 1022,5 hPa 0,0 l/m 10,6 km/h (2 Bft) W 1,00 h 0,356 mm 0,6 UV-I 257 W/m 6,6 C 16,6 C 19,4 km/h (3 Bft) 98,07 %
29.03.2017 18:00 17,4 C 47 % 1022,5 hPa 0,0 l/m 8,4 km/h (2 Bft) W 1,00 h 0,228 mm 0,0 UV-I 107 W/m 5,9 C 16,4 C 15,8 km/h (3 Bft) 96,63 %
29.03.2017 19:00 15,9 C 50 % 1022,8 hPa 0,0 l/m 6,5 km/h (2 Bft) W 0,33 h 0,127 mm 0,0 UV-I 18 W/m 5,6 C 15,7 C 11,1 km/h (2 Bft) 95,60 %
29.03.2017 20:00 14,6 C 54 % 1023,4 hPa 0,0 l/m 7,4 km/h (2 Bft) W-SW 0,00 h 0,051 mm 0,0 UV-I 0 W/m 5,3 C 13,9 C 11,9 km/h (2 Bft) 96,58 %
29.03.2017 21:00 12,9 C 61 % 1023,9 hPa 0,0 l/m 6,3 km/h (2 Bft) S-SW 0,00 h 0,051 mm 0,0 UV-I 0 W/m 5,5 C 12,8 C 9,1 km/h (2 Bft) 97,77 %
29.03.2017 22:00 11,2 C 70 % 1024,3 hPa 0,0 l/m 6,7 km/h (2 Bft) S-SW 0,00 h 0,025 mm 0,0 UV-I 0 W/m 5,8 C 10,9 C 9,8 km/h (2 Bft) 96,46 %
29.03.2017 23:00 11,1 C 72 % 1024,7 hPa 0,0 l/m 8,8 km/h (2 Bft) SW 0,00 h 0,026 mm 0,0 UV-I 0 W/m 6,2 C 9,5 C 13,6 km/h (3 Bft) 96,85 %
30.03.2017 00:00 10,5 C 75 % 1025,0 hPa 0,0 l/m 8,9 km/h (2 Bft) S-SW 0,00 h 0,000 mm 0,0 UV-I 0 W/m 6,2 C 8,9 C 13,9 km/h (3 Bft) 96,18 %
30.03.2017 01:00 9,9 C 76 % 1025,2 hPa 0,0 l/m 6,9 km/h (2 Bft) S-SW 0,00 h 0,025 mm 0,0 UV-I 0 W/m 5,9 C 9,5 C 10,8 km/h (2 Bft) 97,39 %
30.03.2017 02:00 8,8 C 80 % 1025,4 hPa 0,0 l/m 6,8 km/h (2 Bft) S-SW 0,00 h 0,026 mm 0,0 UV-I 0 W/m 5,5 C 8,4 C 9,4 km/h (2 Bft) 97,99 %
30.03.2017 03:00 9,1 C 79 % 1025,3 hPa 0,0 l/m 7,9 km/h (2 Bft) S-SW 0,00 h 0,025 mm 0,0 UV-I 0 W/m 5,8 C 8,0 C 11,3 km/h (2 Bft) 97,05 %
30.03.2017 04:00 9,3 C 80 % 1025,3 hPa 0,0 l/m 6,2 km/h (2 Bft) SW 0,00 h 0,026 mm 0,0 UV-I 0 W/m 5,9 C 8,9 C 9,1 km/h (2 Bft) 96,05 %
30.03.2017 05:00 9,5 C 79 % 1025,6 hPa 0,0 l/m 4,9 km/h (1 Bft) SW 0,00 h 0,025 mm 0,0 UV-I 0 W/m 6,1 C 9,5 C 7,6 km/h (2 Bft) 96,61 %
30.03.2017 06:00 9,5 C 80 % 1025,8 hPa 0,0 l/m 1,5 km/h (1 Bft) SW 0,03 h 0,025 mm 0,0 UV-I 8 W/m 6,3 C 9,5 C 3,2 km/h (1 Bft) 98,58 %
30.03.2017 07:00 9,5 C 81 % 1026,0 hPa 0,0 l/m 0,8 km/h (0 Bft) SW 0,00 h 0,000 mm 0,0 UV-I 37 W/m 6,4 C 9,5 C 2,6 km/h (1 Bft) 95,68 %
30.03.2017 08:00 10,1 C 79 % 1026,3 hPa 0,0 l/m 0,5 km/h (0 Bft) SW 0,00 h 0,026 mm 0,0 UV-I 74 W/m 6,7 C 10,1 C 1,5 km/h (1 Bft) 96,02 %
30.03.2017 09:00 11,0 C 75 % 1026,6 hPa 0,0 l/m 1,3 km/h (1 Bft) SW 0,00 h 0,025 mm 0,5 UV-I 132 W/m 6,7 C 11,0 C 2,9 km/h (1 Bft) 95,36 %
30.03.2017 10:00 12,3 C 72 % 1026,8 hPa 0,0 l/m 2,7 km/h (1 Bft) SW 0,10 h 0,076 mm 1,0 UV-I 255 W/m 7,4 C 12,3 C 5,0 km/h (1 Bft) 97,77 %
30.03.2017 11:00 14,4 C 64 % 1026,7 hPa 0,0 l/m 4,1 km/h (1 Bft) W 1,00 h 0,127 mm 2,0 UV-I 462 W/m 7,7 C 14,4 C 8,4 km/h (2 Bft) 97,02 %
30.03.2017 12:00 15,9 C 58 % 1026,3 hPa 0,0 l/m 3,8 km/h (1 Bft) W-SW 1,00 h 0,254 mm 3,0 UV-I 637 W/m 7,7 C 15,9 C 7,3 km/h (2 Bft) 96,93 %
30.03.2017 13:00 17,5 C 54 % 1025,8 hPa 0,0 l/m 2,3 km/h (1 Bft) NW 1,00 h 0,356 mm 3,2 UV-I 682 W/m 8,1 C 17,5 C 5,0 km/h (1 Bft) 94,77 %
30.03.2017 14:00 18,5 C 49 % 1025,3 hPa 0,0 l/m 4,2 km/h (1 Bft) SW 0,90 h 0,381 mm 2,7 UV-I 723 W/m 7,6 C 18,4 C 8,3 km/h (2 Bft) 95,57 %
30.03.2017 15:00 18,7 C 50 % 1024,6 hPa 0,0 l/m 5,7 km/h (1 Bft) NO 0,90 h 0,406 mm 1,9 UV-I 564 W/m 7,9 C 18,1 C 10,0 km/h (2 Bft) 97,65 %
30.03.2017 16:00 18,6 C 49 % 1024,3 hPa 0,0 l/m 3,6 km/h (1 Bft) N 1,00 h 0,356 mm 1,2 UV-I 431 W/m 7,8 C 18,5 C 7,5 km/h (2 Bft) 97,41 %
30.03.2017 17:00 18,3 C 50 % 1023,9 hPa 0,0 l/m 4,6 km/h (1 Bft) NO 1,00 h 0,279 mm 0,6 UV-I 264 W/m 7,7 C 18,2 C 8,4 km/h (2 Bft) 95,71 %
30.03.2017 18:00 17,3 C 54 % 1023,6 hPa 0,0 l/m 4,8 km/h (1 Bft) O-NO 1,00 h 0,178 mm 0,0 UV-I 108 W/m 7,8 C 17,2 C 7,5 km/h (2 Bft) 95,95 %
30.03.2017 19:00 15,6 C 59 % 1023,6 hPa 0,0 l/m 4,1 km/h (1 Bft) O-NO 0,37 h 0,102 mm 0,0 UV-I 17 W/m 7,5 C 15,6 C 5,9 km/h (2 Bft) 94,60 %
30.03.2017 20:00 14,6 C 60 % 1023,9 hPa 0,0 l/m 5,5 km/h (1 Bft) O 0,00 h 0,025 mm 0,0 UV-I 0 W/m 6,9 C 14,5 C 8,3 km/h (2 Bft) 96,66 %
30.03.2017 21:00 13,9 C 62 % 1024,1 hPa 0,0 l/m 6,8 km/h (2 Bft) O 0,00 h 0,026 mm 0,0 UV-I 0 W/m 6,7 C 13,6 C 11,1 km/h (2 Bft) 97,03 %
30.03.2017 22:00 12,9 C 65 % 1024,0 hPa 0,0 l/m 6,3 km/h (2 Bft) O 0,00 h 0,050 mm 0,0 UV-I 0 W/m 6,6 C 12,8 C 10,2 km/h (2 Bft) 98,73 %
30.03.2017 23:00 12,0 C 69 % 1023,6 hPa 0,0 l/m 5,8 km/h (2 Bft) O-NO 0,00 h 0,026 mm 0,0 UV-I 0 W/m 6,4 C 11,9 C 8,5 km/h (2 Bft) 96,77 %
31.03.2017 00:00 10,6 C 75 % 1023,3 hPa 0,0 l/m 5,3 km/h (1 Bft) O-NO 0,00 h 0,000 mm 0,0 UV-I 0 W/m 6,4 C 10,6 C 7,0 km/h (2 Bft) 97,58 %
31.03.2017 01:00 9,0 C 82 % 1023,0 hPa 0,0 l/m 2,4 km/h (1 Bft) O-NO 0,00 h 0,025 mm 0,0 UV-I 0 W/m 6,0 C 9,0 C 3,5 km/h (1 Bft) 97,63 %
31.03.2017 02:00 8,8 C 83 % 1022,5 hPa 0,0 l/m 3,5 km/h (1 Bft) O 0,00 h 0,000 mm 0,0 UV-I 0 W/m 6,0 C 8,8 C 6,3 km/h (2 Bft) 98,58 %
31.03.2017 03:00 7,5 C 87 % 1021,9 hPa 0,0 l/m 2,5 km/h (1 Bft) O-NO 0,00 h 0,000 mm 0,0 UV-I 0 W/m 5,5 C 7,5 C 4,1 km/h (1 Bft) 96,36 %
31.03.2017 04:00 6,3 C 91 % 1021,6 hPa 0,0 l/m 0,5 km/h (0 Bft) O-NO 0,00 h 0,000 mm 0,0 UV-I 0 W/m 4,9 C 6,3 C 1,2 km/h (1 Bft) 97,86 %
31.03.2017 05:00 5,4 C 92 % 1021,2 hPa 0,0 l/m 0,7 km/h (0 Bft) O-NO 0,00 h 0,000 mm 0,0 UV-I 0 W/m 4,2 C 5,4 C 1,7 km/h (1 Bft) 97,31 %
31.03.2017 06:00 5,3 C 93 % 1020,9 hPa 0,0 l/m 1,7 km/h (1 Bft) O-NO 0,10 h 0,000 mm 0,0 UV-I 9 W/m 4,3 C 5,3 C 2,7 km/h (1 Bft) 95,84 %
31.03.2017 07:00 5,2 C 94 % 1020,9 hPa 0,0 l/m 0,9 km/h (0 Bft) O-NO 1,00 h 0,000 mm 0,0 UV-I 87 W/m 4,2 C 5,2 C 2,2 km/h (1 Bft) 95,61 %
31.03.2017 08:00 8,1 C 88 % 1020,7 hPa 0,0 l/m 2,5 km/h (1 Bft) O-NO 1,00 h 0,026 mm 0,5 UV-I 236 W/m 6,2 C 8,1 C 4,0 km/h (1 Bft) 94,56 %
31.03.2017 09:00 10,5 C 80 % 1020,5 hPa 0,0 l/m 5,4 km/h (1 Bft) O-NO 1,00 h 0,101 mm 1,0 UV-I 423 W/m 7,2 C 10,3 C 8,2 km/h (2 Bft) 97,38 %
31.03.2017 10:00 13,0 C 73 % 1020,2 hPa 0,0 l/m 7,7 km/h (2 Bft) NO 1,00 h 0,204 mm 1,8 UV-I 562 W/m 8,2 C 12,1 C 12,0 km/h (2 Bft) 97,83 %
31.03.2017 11:00 14,8 C 67 % 1019,7 hPa 0,0 l/m 6,3 km/h (2 Bft) O-NO 1,00 h 0,304 mm 2,7 UV-I 673 W/m 8,8 C 14,6 C 10,2 km/h (2 Bft) 97,99 %
31.03.2017 12:00 16,8 C 63 % 1018,9 hPa 0,0 l/m 5,9 km/h (2 Bft) NO 1,00 h 0,381 mm 3,4 UV-I 736 W/m 9,6 C 16,6 C 10,8 km/h (2 Bft) 95,17 %
31.03.2017 13:00 18,7 C 57 % 1018,0 hPa 0,0 l/m 6,7 km/h (2 Bft) NO 1,00 h 0,432 mm 3,5 UV-I 739 W/m 10,0 C 18,3 C 11,3 km/h (2 Bft) 92,56 %
31.03.2017 14:00 20,1 C 51 % 1017,2 hPa 0,0 l/m 6,5 km/h (2 Bft) O-NO 1,00 h 0,457 mm 3,1 UV-I 689 W/m 9,8 C 19,9 C 11,3 km/h (2 Bft) 97,43 %
31.03.2017 15:00 21,2 C 48 % 1016,5 hPa 0,0 l/m 6,0 km/h (2 Bft) NO 1,00 h 0,432 mm 2,3 UV-I 590 W/m 9,7 C 21,0 C 10,3 km/h (2 Bft) 97,95 %
31.03.2017 16:00 21,9 C 46 % 1015,6 hPa 0,0 l/m 7,1 km/h (2 Bft) NO 1,00 h 0,407 mm 1,4 UV-I 446 W/m 9,6 C 21,5 C 11,7 km/h (2 Bft) 98,80 %
31.03.2017 17:00 21,8 C 45 % 1014,9 hPa 0,0 l/m 8,0 km/h (2 Bft) O-NO 1,00 h 0,330 mm 0,7 UV-I 277 W/m 9,2 C 21,3 C 12,5 km/h (3 Bft) 97,31 %
31.03.2017 18:00 20,8 C 47 % 1014,5 hPa 0,0 l/m 7,0 km/h (2 Bft) O-NO 1,00 h 0,228 mm 0,0 UV-I 119 W/m 9,2 C 20,5 C 11,0 km/h (2 Bft) 95,82 %
31.03.2017 19:00 18,9 C 55 % 1014,1 hPa 0,0 l/m 4,1 km/h (1 Bft) O-NO 0,40 h 0,127 mm 0,0 UV-I 19 W/m 9,6 C 18,9 C 5,8 km/h (2 Bft) 95,02 %
31.03.2017 20:00 16,8 C 62 % 1014,0 hPa 0,0 l/m 2,4 km/h (1 Bft) O-NO 0,00 h 0,051 mm 0,0 UV-I 0 W/m 9,5 C 16,8 C 3,7 km/h (1 Bft) 98,58 %
31.03.2017 21:00 16,3 C 61 % 1013,8 hPa 0,0 l/m 6,6 km/h (2 Bft) O-NO 0,00 h 0,026 mm 0,0 UV-I 0 W/m 8,9 C 16,0 C 9,8 km/h (2 Bft) 98,16 %
31.03.2017 22:00 15,6 C 63 % 1013,5 hPa 0,0 l/m 8,3 km/h (2 Bft) O-NO 0,00 h 0,050 mm 0,0 UV-I 0 W/m 8,4 C 14,4 C 12,6 km/h (3 Bft) 97,37 %
31.03.2017 23:00 13,0 C 72 % 1013,3 hPa 0,0 l/m 2,1 km/h (1 Bft) O-NO 0,00 h 0,051 mm 0,0 UV-I 0 W/m 8,0 C 13,0 C 3,5 km/h (1 Bft) 96,43 %
01.04.2017 00:00 10,7 C 81 % 1013,0 hPa 0,0 l/m 1,9 km/h (1 Bft) O-SO 0,00 h 0,000 mm 0,0 UV-I 0 W/m 7,6 C 10,7 C 2,7 km/h (1 Bft) 95,58 %
01.04.2017 01:00 9,6 C 85 % 1012,8 hPa 0,0 l/m 2,7 km/h (1 Bft) S 0,00 h 0,000 mm 0,0 UV-I 0 W/m 7,2 C 9,6 C 4,0 km/h (1 Bft) 99,22 %
01.04.2017 02:00 8,8 C 87 % 1012,3 hPa 0,0 l/m 1,6 km/h (1 Bft) S 0,00 h 0,000 mm 0,0 UV-I 0 W/m 6,9 C 8,8 C 2,7 km/h (1 Bft) 97,23 %
01.04.2017 03:00 8,2 C 90 % 1012,0 hPa 0,0 l/m 2,4 km/h (1 Bft) S 0,00 h 0,000 mm 0,0 UV-I 0 W/m 6,6 C 8,2 C 3,7 km/h (1 Bft) 96,94 %
01.04.2017 04:00 7,5 C 91 % 1011,6 hPa 0,0 l/m 2,5 km/h (1 Bft) S 0,00 h 0,000 mm 0,0 UV-I 0 W/m 6,2 C 7,5 C 3,8 km/h (1 Bft) 97,50 %
01.04.2017 05:00 6,8 C 92 % 1011,5 hPa 0,0 l/m 1,6 km/h (1 Bft) S 0,00 h 0,000 mm 0,0 UV-I 0 W/m 5,6 C 6,8 C 3,1 km/h (1 Bft) 99,06 %
01.04.2017 06:00 6,2 C 93 % 1011,2 hPa 0,0 l/m 1,2 km/h (1 Bft) O 0,13 h 0,000 mm 0,0 UV-I 12 W/m 5,2 C 6,2 C 2,7 km/h (1 Bft) 97,31 %
01.04.2017 07:00 6,7 C 92 % 1011,3 hPa 0,0 l/m 0,2 km/h (0 Bft) O-SO 1,00 h 0,000 mm 0,0 UV-I 94 W/m 5,6 C 6,7 C 0,6 km/h (0 Bft) 94,00 %
01.04.2017 08:00 9,9 C 85 % 1011,2 hPa 0,0 l/m 3,2 km/h (1 Bft) O-NO 1,00 h 0,051 mm 0,5 UV-I 250 W/m 7,5 C 9,9 C 5,6 km/h (1 Bft) 97,90 %
01.04.2017 09:00 12,1 C 77 % 1011,1 hPa 0,0 l/m 7,0 km/h (2 Bft) O-NO 1,00 h 0,127 mm 1,0 UV-I 419 W/m 8,3 C 11,5 C 10,9 km/h (2 Bft) 96,98 %
01.04.2017 10:00 14,3 C 71 % 1011,0 hPa 0,0 l/m 4,3 km/h (1 Bft) O-NO 1,00 h 0,228 mm 1,8 UV-I 562 W/m 9,2 C 14,3 C 7,0 km/h (2 Bft) 97,68 %
01.04.2017 11:00 16,2 C 65 % 1010,6 hPa 0,0 l/m 4,4 km/h (1 Bft) O-NO 1,00 h 0,305 mm 2,7 UV-I 668 W/m 9,7 C 16,2 C 7,8 km/h (2 Bft) 95,30 %
01.04.2017 12:00 18,0 C 58 % 1010,2 hPa 0,0 l/m 4,1 km/h (1 Bft) O-NO 1,00 h 0,381 mm 3,3 UV-I 727 W/m 9,6 C 18,0 C 7,4 km/h (2 Bft) 94,60 %
01.04.2017 13:00 19,8 C 55 % 1009,7 hPa 0,0 l/m 4,2 km/h (1 Bft) NO 1,00 h 0,432 mm 3,4 UV-I 728 W/m 10,5 C 19,8 C 8,1 km/h (2 Bft) 95,95 %
01.04.2017 14:00 21,0 C 48 % 1009,0 hPa 0,0 l/m 3,6 km/h (1 Bft) NO 1,00 h 0,432 mm 2,9 UV-I 677 W/m 9,6 C 21,0 C 8,3 km/h (2 Bft) 96,13 %
01.04.2017 15:00 21,8 C 42 % 1008,4 hPa 0,0 l/m 3,0 km/h (1 Bft) N-NO 1,00 h 0,432 mm 2,1 UV-I 576 W/m 8,4 C 21,8 C 6,8 km/h (2 Bft) 97,26 %
01.04.2017 16:00 21,9 C 38 % 1007,9 hPa 0,0 l/m 4,2 km/h (1 Bft) N-NO 1,00 h 0,381 mm 1,3 UV-I 433 W/m 7,0 C 21,8 C 8,2 km/h (2 Bft) 94,86 %
01.04.2017 17:00 22,0 C 37 % 1007,5 hPa 0,0 l/m 5,6 km/h (1 Bft) O-NO 1,00 h 0,304 mm 0,6 UV-I 270 W/m 6,7 C 21,8 C 9,2 km/h (2 Bft) 94,98 %
01.04.2017 18:00 20,7 C 43 % 1007,5 hPa 0,0 l/m 6,6 km/h (2 Bft) O 0,43 h 0,229 mm 0,0 UV-I 86 W/m 7,7 C 20,5 C 10,6 km/h (2 Bft) 94,56 %
01.04.2017 19:00 17,7 C 55 % 1007,4 hPa 0,0 l/m 3,8 km/h (1 Bft) O-NO 0,00 h 0,102 mm 0,0 UV-I 10 W/m 8,5 C 17,7 C 5,7 km/h (1 Bft) 96,31 %
01.04.2017 20:00 15,1 C 65 % 1007,7 hPa 0,0 l/m 2,6 km/h (1 Bft) O-NO 0,00 h 0,025 mm 0,0 UV-I 0 W/m 8,5 C 15,1 C 4,3 km/h (1 Bft) 96,28 %
01.04.2017 21:00 13,8 C 69 % 1008,1 hPa 0,0 l/m 3,4 km/h (1 Bft) S 0,00 h 0,025 mm 0,0 UV-I 0 W/m 8,2 C 13,8 C 5,5 km/h (1 Bft) 94,31 %
01.04.2017 22:00 13,3 C 69 % 1008,6 hPa 0,0 l/m 5,0 km/h (1 Bft) S-SW 0,00 h 0,026 mm 0,0 UV-I 0 W/m 7,6 C 13,3 C 6,5 km/h (2 Bft) 97,98 %
01.04.2017 23:00 13,9 C 55 % 1009,0 hPa 0,0 l/m 4,8 km/h (1 Bft) S 0,00 h 0,025 mm 0,0 UV-I 0 W/m 5,0 C 13,9 C 8,0 km/h (2 Bft) 96,83 %
02.04.2017 00:00 11,8 C 68 % 1009,5 hPa 0,0 l/m 2,2 km/h (1 Bft) O-NO 0,00 h 0,000 mm 0,0 UV-I 0 W/m 5,9 C 11,8 C 3,8 km/h (1 Bft) 97,77 %
02.04.2017 01:00 10,0 C 78 % 1009,8 hPa 0,0 l/m 2,0 km/h (1 Bft) NO 0,00 h 0,025 mm 0,0 UV-I 0 W/m 6,4 C 10,0 C 3,3 km/h (1 Bft) 95,78 %
02.04.2017 02:00 8,9 C 81 % 1010,1 hPa 0,0 l/m 2,2 km/h (1 Bft) S 0,00 h 0,000 mm 0,0 UV-I 0 W/m 5,8 C 8,9 C 4,2 km/h (1 Bft) 96,10 %
02.04.2017 03:00 8,5 C 78 % 1010,6 hPa 0,0 l/m 3,5 km/h (1 Bft) S 0,00 h 0,000 mm 0,0 UV-I 0 W/m 5,0 C 8,5 C 5,2 km/h (1 Bft) 96,89 %
02.04.2017 04:00 10,3 C 66 % 1011,2 hPa 0,0 l/m 6,2 km/h (2 Bft) S-SW 0,00 h 0,000 mm 0,0 UV-I 0 W/m 4,2 C 10,0 C 9,3 km/h (2 Bft) 97,14 %
02.04.2017 05:00 10,5 C 68 % 1011,5 hPa 0,0 l/m 9,1 km/h (2 Bft) SW 0,00 h 0,026 mm 0,0 UV-I 0 W/m 4,9 C 8,8 C 13,0 km/h (3 Bft) 98,07 %
02.04.2017 06:00 10,4 C 72 % 1012,1 hPa 0,0 l/m 8,9 km/h (2 Bft) SW 0,17 h 0,025 mm 0,0 UV-I 15 W/m 5,6 C 8,7 C 13,3 km/h (3 Bft) 94,40 %
02.04.2017 07:00 10,6 C 73 % 1013,2 hPa 0,0 l/m 8,7 km/h (2 Bft) W-SW 0,90 h 0,026 mm 0,0 UV-I 86 W/m 5,9 C 9,0 C 13,7 km/h (3 Bft) 94,73 %
02.04.2017 08:00 12,0 C 71 % 1014,2 hPa 0,0 l/m 7,9 km/h (2 Bft) SW 1,00 h 0,076 mm 0,5 UV-I 251 W/m 7,0 C 11,0 C 12,6 km/h (3 Bft) 95,63 %
02.04.2017 09:00 13,8 C 68 % 1014,7 hPa 0,0 l/m 9,5 km/h (2 Bft) W-SW 1,00 h 0,152 mm 1,0 UV-I 418 W/m 7,9 C 12,1 C 15,2 km/h (3 Bft) 96,31 %
02.04.2017 10:00 15,3 C 65 % 1015,1 hPa 0,0 l/m 6,5 km/h (2 Bft) W 1,00 h 0,254 mm 1,8 UV-I 568 W/m 8,8 C 14,6 C 12,6 km/h (3 Bft) 94,27 %
02.04.2017 11:00 16,4 C 63 % 1015,3 hPa 0,0 l/m 5,0 km/h (1 Bft) W-SW 1,00 h 0,330 mm 2,7 UV-I 669 W/m 9,2 C 16,1 C 9,9 km/h (2 Bft) 96,56 %
02.04.2017 12:00 17,4 C 60 % 1015,1 hPa 0,0 l/m 3,7 km/h (1 Bft) NW 1,00 h 0,381 mm 3,3 UV-I 736 W/m 9,4 C 17,3 C 8,1 km/h (2 Bft) 98,09 %
02.04.2017 13:00 18,4 C 57 % 1014,9 hPa 0,0 l/m 2,7 km/h (1 Bft) NW 1,00 h 0,432 mm 3,3 UV-I 728 W/m 9,8 C 18,4 C 6,0 km/h (2 Bft) 97,64 %
02.04.2017 14:00 19,2 C 52 % 1014,5 hPa 0,0 l/m 2,5 km/h (1 Bft) N-NO 1,00 h 0,432 mm 3,0 UV-I 697 W/m 9,2 C 19,2 C 5,1 km/h (1 Bft) 98,06 %
02.04.2017 15:00 20,2 C 45 % 1014,1 hPa 0,0 l/m 3,4 km/h (1 Bft) O-SO 1,00 h 0,406 mm 2,2 UV-I 592 W/m 7,7 C 20,1 C 7,4 km/h (2 Bft) 95,98 %
02.04.2017 16:00 20,4 C 42 % 1013,9 hPa 0,0 l/m 2,9 km/h (1 Bft) N-NO 1,00 h 0,381 mm 1,3 UV-I 432 W/m 6,9 C 20,4 C 5,6 km/h (1 Bft) 97,05 %
02.04.2017 17:00 20,3 C 39 % 1013,9 hPa 0,0 l/m 3,2 km/h (1 Bft) NO 0,70 h 0,280 mm 0,7 UV-I 246 W/m 5,9 C 20,3 C 5,3 km/h (1 Bft) 96,51 %
02.04.2017 18:00 18,8 C 47 % 1014,2 hPa 0,0 l/m 1,9 km/h (1 Bft) O 0,00 h 0,178 mm 0,0 UV-I 72 W/m 7,0 C 18,8 C 3,7 km/h (1 Bft) 97,17 %
02.04.2017 19:00 15,9 C 60 % 1014,6 hPa 0,0 l/m 2,4 km/h (1 Bft) O-SO 0,10 h 0,076 mm 0,0 UV-I 16 W/m 8,0 C 15,9 C 4,0 km/h (1 Bft) 95,82 %
02.04.2017 20:00 13,8 C 64 % 1015,2 hPa 0,0 l/m 2,6 km/h (1 Bft) SO 0,00 h 0,025 mm 0,0 UV-I 0 W/m 7,1 C 13,8 C 3,9 km/h (1 Bft) 94,50 %
02.04.2017 21:00 12,6 C 67 % 1015,8 hPa 0,0 l/m 3,0 km/h (1 Bft) S 0,00 h 0,026 mm 0,0 UV-I 0 W/m 6,7 C 12,6 C 4,6 km/h (1 Bft) 97,78 %
02.04.2017 22:00 12,5 C 69 % 1016,3 hPa 0,0 l/m 3,6 km/h (1 Bft) S 0,00 h 0,025 mm 0,0 UV-I 0 W/m 7,0 C 12,5 C 6,0 km/h (2 Bft) 96,52 %
02.04.2017 23:00 11,6 C 73 % 1016,7 hPa 0,0 l/m 4,6 km/h (1 Bft) S 0,00 h 0,025 mm 0,0 UV-I 0 W/m 6,9 C 11,6 C 7,1 km/h (2 Bft) 98,45 %
Min-Datum _ 27.03.17 27.03.17 01.04.17 - 27.03.17 - - - - - 27.03.17 27.03.17 27.03.17 01.04.17
_ Min-Zeit 04:26 15:36 19:02 - 00:20 - - - - - 15:36 05:32 00:20 00:02
Minimum _ -0,5 C 21 % 1007,3 hPa - 0,0 km/h (0 Bft) - - - - - -7,4 C -4,3 C 0,0 km/h (0 Bft) 9,52 %
Max-Datum _ 01.04.17 31.03.17 30.03.17 27.03.17 27.03.17 - 28.03.17 27.03.17 31.03.17 30.03.17 01.04.17 01.04.17 29.03.17 27.03.17
_ Max-Zeit 16:20 06:40 10:38 00:00 13:58 - 08:22 15:02 13:02 14:40 13:36 16:22 14:56 01:16
Maximum _ 22,3 C 95 % 1026,9 hPa 0,0 l/m 23,9 km/h
O-NO (4 Bft)
- 0,07 h 0,508 mm 3,6 UV-I 915 W/m 12,1 C 22,3 C 37,0 km/h
W (5 Bft)
100,00 %
Durchschnitt _ 12,1 C 64 % 1019,8 hPa #0,0 l/m 5,6 km/h (1 Bft) O-NO #78:32 h #24,613 mm 1,9 UV-I 381 W/m 4,9 C 11,4 C 9,0 km/h (2 Bft) 96,78 %